You are listening to:
LTFJ Del/Gnd/Twr - Istanbul, Turkey

LTFJ 262120Z 18012G22KT 9999 SCT035 BKN100 15/07 Q1002 NOSIG

If stream doesn't start automatically press the play button
If stream stops then reload player then press play